sensor_id;sensor_type;location;lat;lon;timestamp;temperature;humidity
68609;SHT31;55581;46.718;7.690;2022-11-27T00:00:38;1.92;84.59
68609;SHT31;55581;46.718;7.690;2022-11-27T00:03:04;1.92;84.55
68609;SHT31;55581;46.718;7.690;2022-11-27T00:05:29;1.92;84.61
68609;SHT31;55581;46.718;7.690;2022-11-27T00:07:55;1.88;84.89
68609;SHT31;55581;46.718;7.690;2022-11-27T00:10:20;1.92;84.36
68609;SHT31;55581;46.718;7.690;2022-11-27T00:12:45;1.98;84.02
68609;SHT31;55581;46.718;7.690;2022-11-27T00:15:11;2.12;82.69
68609;SHT31;55581;46.718;7.690;2022-11-27T00:17:36;2.34;81.00
68609;SHT31;55581;46.718;7.690;2022-11-27T00:20:02;2.40;81.61
68609;SHT31;55581;46.718;7.690;2022-11-27T00:22:28;2.39;81.65
68609;SHT31;55581;46.718;7.690;2022-11-27T00:24:53;2.51;81.22
68609;SHT31;55581;46.718;7.690;2022-11-27T00:27:19;2.54;82.13
68609;SHT31;55581;46.718;7.690;2022-11-27T00:29:44;2.54;82.70
68609;SHT31;55581;46.718;7.690;2022-11-27T00:32:10;2.58;82.20
68609;SHT31;55581;46.718;7.690;2022-11-27T00:34:36;2.65;81.23
68609;SHT31;55581;46.718;7.690;2022-11-27T00:37:01;2.80;79.37
68609;SHT31;55581;46.718;7.690;2022-11-27T00:39:31;2.89;79.91
68609;SHT31;55581;46.718;7.690;2022-11-27T00:41:56;2.88;79.97
68609;SHT31;55581;46.718;7.690;2022-11-27T00:44:22;2.68;80.86
68609;SHT31;55581;46.718;7.690;2022-11-27T00:46:47;2.62;81.37
68609;SHT31;55581;46.718;7.690;2022-11-27T00:49:13;2.53;82.54
68609;SHT31;55581;46.718;7.690;2022-11-27T00:51:39;2.49;82.35
68609;SHT31;55581;46.718;7.690;2022-11-27T00:54:06;2.47;81.47
68609;SHT31;55581;46.718;7.690;2022-11-27T00:56:34;2.54;81.18
68609;SHT31;55581;46.718;7.690;2022-11-27T00:59:00;2.67;80.67
68609;SHT31;55581;46.718;7.690;2022-11-27T01:01:32;2.89;79.14
68609;SHT31;55581;46.718;7.690;2022-11-27T01:03:59;3.08;78.36
68609;SHT31;55581;46.718;7.690;2022-11-27T01:06:26;3.04;78.50
68609;SHT31;55581;46.718;7.690;2022-11-27T01:08:52;2.89;81.44
68609;SHT31;55581;46.718;7.690;2022-11-27T01:11:21;2.77;81.83
68609;SHT31;55581;46.718;7.690;2022-11-27T01:13:50;2.70;81.72
68609;SHT31;55581;46.718;7.690;2022-11-27T01:16:19;2.65;81.51
68609;SHT31;55581;46.718;7.690;2022-11-27T01:18:46;2.56;81.37
68609;SHT31;55581;46.718;7.690;2022-11-27T01:21:15;2.50;81.33
68609;SHT31;55581;46.718;7.690;2022-11-27T01:23:41;2.41;81.92
68609;SHT31;55581;46.718;7.690;2022-11-27T01:26:08;2.36;82.87
68609;SHT31;55581;46.718;7.690;2022-11-27T01:28:34;2.33;81.75
68609;SHT31;55581;46.718;7.690;2022-11-27T01:31:05;2.40;81.41
68609;SHT31;55581;46.718;7.690;2022-11-27T01:33:31;2.34;81.34
68609;SHT31;55581;46.718;7.690;2022-11-27T01:35:59;2.29;81.09
68609;SHT31;55581;46.718;7.690;2022-11-27T01:38:25;2.20;81.99
68609;SHT31;55581;46.718;7.690;2022-11-27T01:41:06;2.19;81.11
68609;SHT31;55581;46.718;7.690;2022-11-27T01:43:37;2.15;80.15
68609;SHT31;55581;46.718;7.690;2022-11-27T01:46:03;2.25;79.33
68609;SHT31;55581;46.718;7.690;2022-11-27T01:48:30;2.13;79.16
68609;SHT31;55581;46.718;7.690;2022-11-27T01:50:55;2.13;78.32
68609;SHT31;55581;46.718;7.690;2022-11-27T01:53:21;2.06;78.85
68609;SHT31;55581;46.718;7.690;2022-11-27T01:55:50;2.13;80.79
68609;SHT31;55581;46.718;7.690;2022-11-27T01:58:21;2.11;80.02
68609;SHT31;55581;46.718;7.690;2022-11-27T02:00:48;2.11;80.87
68609;SHT31;55581;46.718;7.690;2022-11-27T02:03:13;2.13;81.62
68609;SHT31;55581;46.718;7.690;2022-11-27T02:05:40;2.12;80.87
68609;SHT31;55581;46.718;7.690;2022-11-27T02:08:10;2.15;81.02
68609;SHT31;55581;46.718;7.690;2022-11-27T02:13:32;2.06;80.52
68609;SHT31;55581;46.718;7.690;2022-11-27T02:16:09;2.02;81.02
68609;SHT31;55581;46.718;7.690;2022-11-27T02:21:46;1.82;81.65
68609;SHT31;55581;46.718;7.690;2022-11-27T02:30:00;1.73;84.67
68609;SHT31;55581;46.718;7.690;2022-11-27T02:32:50;1.64;83.52
68609;SHT31;55581;46.718;7.690;2022-11-27T02:35:36;1.64;82.21
68609;SHT31;55581;46.718;7.690;2022-11-27T02:38:13;1.54;82.27
68609;SHT31;55581;46.718;7.690;2022-11-27T02:45:45;1.58;84.22
68609;SHT31;55581;46.718;7.690;2022-11-27T02:48:16;1.51;83.35
68609;SHT31;55581;46.718;7.690;2022-11-27T02:50:44;1.56;80.74
68609;SHT31;55581;46.718;7.690;2022-11-27T02:53:14;1.60;81.50
68609;SHT31;55581;46.718;7.690;2022-11-27T02:55:43;1.54;83.80
68609;SHT31;55581;46.718;7.690;2022-11-27T02:58:12;1.50;83.75
68609;SHT31;55581;46.718;7.690;2022-11-27T03:00:40;1.53;83.54
68609;SHT31;55581;46.718;7.690;2022-11-27T03:03:10;1.48;82.53
68609;SHT31;55581;46.718;7.690;2022-11-27T03:05:40;1.54;82.47
68609;SHT31;55581;46.718;7.690;2022-11-27T03:08:13;1.50;81.35
68609;SHT31;55581;46.718;7.690;2022-11-27T03:10:49;1.42;81.72
68609;SHT31;55581;46.718;7.690;2022-11-27T03:13:16;1.35;83.31
68609;SHT31;55581;46.718;7.690;2022-11-27T03:15:54;1.33;84.99
68609;SHT31;55581;46.718;7.690;2022-11-27T03:18:31;1.29;84.19
68609;SHT31;55581;46.718;7.690;2022-11-27T03:23:44;1.29;83.22
68609;SHT31;55581;46.718;7.690;2022-11-27T03:26:09;1.30;81.88
68609;SHT31;55581;46.718;7.690;2022-11-27T03:28:37;1.35;82.18
68609;SHT31;55581;46.718;7.690;2022-11-27T03:31:03;1.29;84.17
68609;SHT31;55581;46.718;7.690;2022-11-27T03:33:28;1.27;82.13
68609;SHT31;55581;46.718;7.690;2022-11-27T03:35:57;1.27;82.94
68609;SHT31;55581;46.718;7.690;2022-11-27T03:38:22;1.25;82.50
68609;SHT31;55581;46.718;7.690;2022-11-27T03:41:01;1.30;80.52
68609;SHT31;55581;46.718;7.690;2022-11-27T03:43:33;1.30;80.43
68609;SHT31;55581;46.718;7.690;2022-11-27T03:46:19;1.35;80.48
68609;SHT31;55581;46.718;7.690;2022-11-27T03:49:32;1.32;80.92
68609;SHT31;55581;46.718;7.690;2022-11-27T03:51:39;1.32;81.34
68609;SHT31;55581;46.718;7.690;2022-11-27T03:57:03;1.27;80.99
68609;SHT31;55581;46.718;7.690;2022-11-27T03:59:36;1.33;81.07
68609;SHT31;55581;46.718;7.690;2022-11-27T04:02:03;1.43;79.85
68609;SHT31;55581;46.718;7.690;2022-11-27T04:04:28;1.44;80.34
68609;SHT31;55581;46.718;7.690;2022-11-27T04:06:56;1.39;80.93
68609;SHT31;55581;46.718;7.690;2022-11-27T04:09:21;1.30;79.07
68609;SHT31;55581;46.718;7.690;2022-11-27T04:11:47;1.26;79.28
68609;SHT31;55581;46.718;7.690;2022-11-27T04:14:12;1.15;79.89
68609;SHT31;55581;46.718;7.690;2022-11-27T04:16:40;1.20;79.32
68609;SHT31;55581;46.718;7.690;2022-11-27T04:19:07;1.25;78.63
68609;SHT31;55581;46.718;7.690;2022-11-27T04:21:33;1.32;79.06
68609;SHT31;55581;46.718;7.690;2022-11-27T04:23:59;1.36;78.78
68609;SHT31;55581;46.718;7.690;2022-11-27T04:26:24;1.42;79.09
68609;SHT31;55581;46.718;7.690;2022-11-27T04:28:49;1.43;79.85
68609;SHT31;55581;46.718;7.690;2022-11-27T04:31:15;1.42;80.15
68609;SHT31;55581;46.718;7.690;2022-11-27T04:33:40;1.56;82.65
68609;SHT31;55581;46.718;7.690;2022-11-27T04:36:06;1.61;82.62
68609;SHT31;55581;46.718;7.690;2022-11-27T04:38:31;1.64;82.07
68609;SHT31;55581;46.718;7.690;2022-11-27T04:40:56;1.67;82.27
68609;SHT31;55581;46.718;7.690;2022-11-27T04:43:24;1.65;83.39
68609;SHT31;55581;46.718;7.690;2022-11-27T04:45:50;1.75;82.78
68609;SHT31;55581;46.718;7.690;2022-11-27T04:48:15;1.79;83.37
68609;SHT31;55581;46.718;7.690;2022-11-27T04:50:43;1.86;83.91
68609;SHT31;55581;46.718;7.690;2022-11-27T04:53:09;1.84;83.71
68609;SHT31;55581;46.718;7.690;2022-11-27T04:55:34;1.85;83.70
68609;SHT31;55581;46.718;7.690;2022-11-27T04:58:00;1.91;83.70
68609;SHT31;55581;46.718;7.690;2022-11-27T05:00:27;1.91;83.91
68609;SHT31;55581;46.718;7.690;2022-11-27T05:02:53;1.95;84.00
68609;SHT31;55581;46.718;7.690;2022-11-27T05:05:18;1.97;84.50
68609;SHT31;55581;46.718;7.690;2022-11-27T05:07:43;1.92;84.96
68609;SHT31;55581;46.718;7.690;2022-11-27T05:10:09;1.98;84.70
68609;SHT31;55581;46.718;7.690;2022-11-27T05:12:35;2.05;84.57
68609;SHT31;55581;46.718;7.690;2022-11-27T05:15:00;2.19;83.82
68609;SHT31;55581;46.718;7.690;2022-11-27T05:17:25;2.09;83.83
68609;SHT31;55581;46.718;7.690;2022-11-27T05:19:51;2.09;83.30
68609;SHT31;55581;46.718;7.690;2022-11-27T05:22:16;2.11;83.37
68609;SHT31;55581;46.718;7.690;2022-11-27T05:24:41;2.09;83.91
68609;SHT31;55581;46.718;7.690;2022-11-27T05:27:07;2.12;83.58
68609;SHT31;55581;46.718;7.690;2022-11-27T05:29:32;2.11;84.11
68609;SHT31;55581;46.718;7.690;2022-11-27T05:31:58;2.16;84.67
68609;SHT31;55581;46.718;7.690;2022-11-27T05:34:26;2.18;84.17
68609;SHT31;55581;46.718;7.690;2022-11-27T05:36:52;2.23;86.05
68609;SHT31;55581;46.718;7.690;2022-11-27T05:39:17;2.25;85.99
68609;SHT31;55581;46.718;7.690;2022-11-27T05:41:42;2.22;85.78
68609;SHT31;55581;46.718;7.690;2022-11-27T05:44:13;2.18;84.97
68609;SHT31;55581;46.718;7.690;2022-11-27T05:46:39;2.19;85.46
68609;SHT31;55581;46.718;7.690;2022-11-27T05:49:05;2.11;85.08
68609;SHT31;55581;46.718;7.690;2022-11-27T05:51:30;2.09;85.33
68609;SHT31;55581;46.718;7.690;2022-11-27T05:53:56;2.05;85.28
68609;SHT31;55581;46.718;7.690;2022-11-27T05:56:21;2.06;84.60
68609;SHT31;55581;46.718;7.690;2022-11-27T05:58:47;2.02;84.98
68609;SHT31;55581;46.718;7.690;2022-11-27T06:01:14;2.03;84.94
68609;SHT31;55581;46.718;7.690;2022-11-27T06:03:40;1.98;84.19
68609;SHT31;55581;46.718;7.690;2022-11-27T06:06:11;1.92;84.51
68609;SHT31;55581;46.718;7.690;2022-11-27T06:08:38;2.01;83.75
68609;SHT31;55581;46.718;7.690;2022-11-27T06:11:13;1.85;84.06
68609;SHT31;55581;46.718;7.690;2022-11-27T06:13:39;1.78;84.03
68609;SHT31;55581;46.718;7.690;2022-11-27T06:16:15;1.75;83.59
68609;SHT31;55581;46.718;7.690;2022-11-27T06:18:42;1.73;84.01
68609;SHT31;55581;46.718;7.690;2022-11-27T06:21:09;1.70;83.81
68609;SHT31;55581;46.718;7.690;2022-11-27T06:23:35;1.65;84.01
68609;SHT31;55581;46.718;7.690;2022-11-27T06:26:12;1.64;83.05
68609;SHT31;55581;46.718;7.690;2022-11-27T06:28:38;1.58;82.80
68609;SHT31;55581;46.718;7.690;2022-11-27T06:31:15;1.50;81.67
68609;SHT31;55581;46.718;7.690;2022-11-27T06:33:40;1.44;81.25
68609;SHT31;55581;46.718;7.690;2022-11-27T06:36:06;1.42;80.25
68609;SHT31;55581;46.718;7.690;2022-11-27T06:38:36;1.42;80.41
68609;SHT31;55581;46.718;7.690;2022-11-27T06:41:09;1.35;81.72
68609;SHT31;55581;46.718;7.690;2022-11-27T06:43:35;1.33;82.61
68609;SHT31;55581;46.718;7.690;2022-11-27T06:46:01;1.33;82.92
68609;SHT31;55581;46.718;7.690;2022-11-27T06:48:27;1.30;82.90
68609;SHT31;55581;46.718;7.690;2022-11-27T06:50:53;1.32;83.92
68609;SHT31;55581;46.718;7.690;2022-11-27T06:53:19;1.29;84.52
68609;SHT31;55581;46.718;7.690;2022-11-27T06:55:44;1.29;85.68
68609;SHT31;55581;46.718;7.690;2022-11-27T06:58:10;1.30;85.64
68609;SHT31;55581;46.718;7.690;2022-11-27T07:00:38;1.27;86.57
68609;SHT31;55581;46.718;7.690;2022-11-27T07:03:07;1.22;85.90
68609;SHT31;55581;46.718;7.690;2022-11-27T07:05:32;1.22;86.15
68609;SHT31;55581;46.718;7.690;2022-11-27T07:07:58;1.20;85.94
68609;SHT31;55581;46.718;7.690;2022-11-27T07:10:23;1.26;85.57
68609;SHT31;55581;46.718;7.690;2022-11-27T07:12:49;1.30;84.97
68609;SHT31;55581;46.718;7.690;2022-11-27T07:15:14;1.33;85.09
68609;SHT31;55581;46.718;7.690;2022-11-27T07:17:40;1.43;84.72
68609;SHT31;55581;46.718;7.690;2022-11-27T07:20:06;1.48;83.81
68609;SHT31;55581;46.718;7.690;2022-11-27T07:22:37;1.50;83.79
68609;SHT31;55581;46.718;7.690;2022-11-27T07:25:02;1.57;84.09
68609;SHT31;55581;46.718;7.690;2022-11-27T07:27:28;1.64;84.16
68609;SHT31;55581;46.718;7.690;2022-11-27T07:29:53;1.77;83.69
68609;SHT31;55581;46.718;7.690;2022-11-27T07:32:18;1.85;83.79
68609;SHT31;55581;46.718;7.690;2022-11-27T07:34:44;1.95;82.89
68609;SHT31;55581;46.718;7.690;2022-11-27T07:37:09;2.09;82.76
68609;SHT31;55581;46.718;7.690;2022-11-27T07:39:35;2.26;83.06
68609;SHT31;55581;46.718;7.690;2022-11-27T07:42:00;2.40;83.85
68609;SHT31;55581;46.718;7.690;2022-11-27T07:44:25;2.56;82.61
68609;SHT31;55581;46.718;7.690;2022-11-27T07:46:51;2.73;82.46
68609;SHT31;55581;46.718;7.690;2022-11-27T07:49:19;2.84;82.35
68609;SHT31;55581;46.718;7.690;2022-11-27T07:51:47;2.91;83.23
68609;SHT31;55581;46.718;7.690;2022-11-27T07:54:13;2.88;85.80
68609;SHT31;55581;46.718;7.690;2022-11-27T07:56:40;2.87;86.07
68609;SHT31;55581;46.718;7.690;2022-11-27T07:59:08;2.85;86.51
68609;SHT31;55581;46.718;7.690;2022-11-27T08:01:33;2.84;86.50
68609;SHT31;55581;46.718;7.690;2022-11-27T08:03:59;2.81;86.92
68609;SHT31;55581;46.718;7.690;2022-11-27T08:06:27;2.75;86.60
68609;SHT31;55581;46.718;7.690;2022-11-27T08:08:53;2.62;86.02
68609;SHT31;55581;46.718;7.690;2022-11-27T08:11:26;2.56;86.37
68609;SHT31;55581;46.718;7.690;2022-11-27T08:13:59;2.50;87.12
68609;SHT31;55581;46.718;7.690;2022-11-27T08:16:26;2.51;86.99
68609;SHT31;55581;46.718;7.690;2022-11-27T08:18:51;2.47;86.64
68609;SHT31;55581;46.718;7.690;2022-11-27T08:21:17;2.39;87.06
68609;SHT31;55581;46.718;7.690;2022-11-27T08:23:43;2.56;86.48
68609;SHT31;55581;46.718;7.690;2022-11-27T08:26:09;2.64;86.35
68609;SHT31;55581;46.718;7.690;2022-11-27T08:28:35;2.74;85.97
68609;SHT31;55581;46.718;7.690;2022-11-27T08:31:02;2.81;85.40
68609;SHT31;55581;46.718;7.690;2022-11-27T08:33:30;2.88;84.39
68609;SHT31;55581;46.718;7.690;2022-11-27T08:35:56;2.92;83.29
68609;SHT31;55581;46.718;7.690;2022-11-27T08:38:21;3.11;83.48
68609;SHT31;55581;46.718;7.690;2022-11-27T08:40:57;3.15;82.94
68609;SHT31;55581;46.718;7.690;2022-11-27T08:43:24;3.16;82.36
68609;SHT31;55581;46.718;7.690;2022-11-27T08:45:50;3.22;82.13
68609;SHT31;55581;46.718;7.690;2022-11-27T08:48:16;3.26;81.66
68609;SHT31;55581;46.718;7.690;2022-11-27T08:50:41;3.26;81.39
68609;SHT31;55581;46.718;7.690;2022-11-27T08:53:07;3.33;81.00
68609;SHT31;55581;46.718;7.690;2022-11-27T08:55:33;3.40;81.50
68609;SHT31;55581;46.718;7.690;2022-11-27T08:57:58;3.43;81.52
68609;SHT31;55581;46.718;7.690;2022-11-27T09:00:24;3.49;80.96
68609;SHT31;55581;46.718;7.690;2022-11-27T09:02:52;3.56;81.23
68609;SHT31;55581;46.718;7.690;2022-11-27T09:05:17;3.60;80.63
68609;SHT31;55581;46.718;7.690;2022-11-27T09:07:43;3.66;79.67
68609;SHT31;55581;46.718;7.690;2022-11-27T09:10:09;3.77;79.91
68609;SHT31;55581;46.718;7.690;2022-11-27T09:12:34;3.82;78.42
68609;SHT31;55581;46.718;7.690;2022-11-27T09:14:59;3.85;78.96
68609;SHT31;55581;46.718;7.690;2022-11-27T09:17:25;3.94;78.85
68609;SHT31;55581;46.718;7.690;2022-11-27T09:19:50;3.97;78.17
68609;SHT31;55581;46.718;7.690;2022-11-27T09:22:16;4.08;78.61
68609;SHT31;55581;46.718;7.690;2022-11-27T09:24:42;4.16;78.19
68609;SHT31;55581;46.718;7.690;2022-11-27T09:27:07;4.16;78.40
68609;SHT31;55581;46.718;7.690;2022-11-27T09:29:33;4.32;77.61
68609;SHT31;55581;46.718;7.690;2022-11-27T09:31:59;4.34;78.64
68609;SHT31;55581;46.718;7.690;2022-11-27T09:34:25;4.40;79.41
68609;SHT31;55581;46.718;7.690;2022-11-27T09:36:51;4.54;79.12
68609;SHT31;55581;46.718;7.690;2022-11-27T09:39:16;4.71;78.63
68609;SHT31;55581;46.718;7.690;2022-11-27T09:41:55;4.77;79.38
68609;SHT31;55581;46.718;7.690;2022-11-27T09:44:36;4.99;78.68
68609;SHT31;55581;46.718;7.690;2022-11-27T09:50:00;5.19;80.28
68609;SHT31;55581;46.718;7.690;2022-11-27T09:52:38;5.12;80.37
68609;SHT31;55581;46.718;7.690;2022-11-27T09:55:20;5.37;78.68
68609;SHT31;55581;46.718;7.690;2022-11-27T09:58:13;5.47;78.91
68609;SHT31;55581;46.718;7.690;2022-11-27T10:00:40;5.58;78.05
68609;SHT31;55581;46.718;7.690;2022-11-27T10:03:15;5.56;77.89
68609;SHT31;55581;46.718;7.690;2022-11-27T10:17:30;5.85;76.99
68609;SHT31;55581;46.718;7.690;2022-11-27T10:25:20;5.82;79.35
68609;SHT31;55581;46.718;7.690;2022-11-27T10:30:38;5.94;78.50
68609;SHT31;55581;46.718;7.690;2022-11-27T10:33:13;6.09;78.53
68609;SHT31;55581;46.718;7.690;2022-11-27T10:35:41;6.11;76.56
68609;SHT31;55581;46.718;7.690;2022-11-27T10:38:15;6.09;77.88
68609;SHT31;55581;46.718;7.690;2022-11-27T10:40:54;6.11;77.32
68609;SHT31;55581;46.718;7.690;2022-11-27T10:43:24;6.08;77.14
68609;SHT31;55581;46.718;7.690;2022-11-27T10:45:53;6.16;78.30
68609;SHT31;55581;46.718;7.690;2022-11-27T10:48:22;6.16;76.94
68609;SHT31;55581;46.718;7.690;2022-11-27T10:50:51;6.28;77.33
68609;SHT31;55581;46.718;7.690;2022-11-27T10:58:38;6.13;77.49
68609;SHT31;55581;46.718;7.690;2022-11-27T11:01:11;6.22;78.11
68609;SHT31;55581;46.718;7.690;2022-11-27T11:03:37;6.41;77.49
68609;SHT31;55581;46.718;7.690;2022-11-27T11:06:06;6.44;76.89
68609;SHT31;55581;46.718;7.690;2022-11-27T11:08:33;6.57;76.40
68609;SHT31;55581;46.718;7.690;2022-11-27T11:11:01;6.49;75.83
68609;SHT31;55581;46.718;7.690;2022-11-27T11:13:41;6.39;75.28
68609;SHT31;55581;46.718;7.690;2022-11-27T11:18:49;6.34;75.66
68609;SHT31;55581;46.718;7.690;2022-11-27T11:24:20;6.44;77.28
68609;SHT31;55581;46.718;7.690;2022-11-27T11:26:48;6.49;75.39
68609;SHT31;55581;46.718;7.690;2022-11-27T11:31:56;6.73;77.27
68609;SHT31;55581;46.718;7.690;2022-11-27T11:34:28;6.73;74.98
68609;SHT31;55581;46.718;7.690;2022-11-27T11:36:57;6.73;73.98
68609;SHT31;55581;46.718;7.690;2022-11-27T11:39:27;6.75;74.49
68609;SHT31;55581;46.718;7.690;2022-11-27T11:41:54;6.78;76.20
68609;SHT31;55581;46.718;7.690;2022-11-27T11:44:31;6.75;73.45
68609;SHT31;55581;46.718;7.690;2022-11-27T11:46:57;6.71;73.66
68609;SHT31;55581;46.718;7.690;2022-11-27T11:49:26;6.95;74.24
68609;SHT31;55581;46.718;7.690;2022-11-27T11:52:18;7.15;72.38
68609;SHT31;55581;46.718;7.690;2022-11-27T12:00:23;7.36;66.94
68609;SHT31;55581;46.718;7.690;2022-11-27T12:11:14;7.46;65.60
68609;SHT31;55581;46.718;7.690;2022-11-27T12:24:38;7.53;65.26
68609;SHT31;55581;46.718;7.690;2022-11-27T12:30:05;7.53;64.37
68609;SHT31;55581;46.718;7.690;2022-11-27T12:43:30;7.68;61.82
68609;SHT31;55581;46.718;7.690;2022-11-27T12:46:13;7.67;60.90
68609;SHT31;55581;46.718;7.690;2022-11-27T12:48:46;7.57;58.81
68609;SHT31;55581;46.718;7.690;2022-11-27T12:51:36;7.61;60.71
68609;SHT31;55581;46.718;7.690;2022-11-27T12:54:24;7.59;61.18
68609;SHT31;55581;46.718;7.690;2022-11-27T12:57:01;7.59;60.08
68609;SHT31;55581;46.718;7.690;2022-11-27T13:04:38;7.26;60.64
68609;SHT31;55581;46.718;7.690;2022-11-27T13:10:21;7.36;63.22
68609;SHT31;55581;46.718;7.690;2022-11-27T13:13:28;7.42;62.86
68609;SHT31;55581;46.718;7.690;2022-11-27T13:16:01;7.46;62.06
68609;SHT31;55581;46.718;7.690;2022-11-27T13:18:53;7.50;62.09
68609;SHT31;55581;46.718;7.690;2022-11-27T13:21:26;7.49;61.75
68609;SHT31;55581;46.718;7.690;2022-11-27T13:23:53;7.40;62.84
68609;SHT31;55581;46.718;7.690;2022-11-27T13:26:25;7.46;63.64
68609;SHT31;55581;46.718;7.690;2022-11-27T13:28:58;7.47;63.96
68609;SHT31;55581;46.718;7.690;2022-11-27T13:31:31;7.53;63.23
68609;SHT31;55581;46.718;7.690;2022-11-27T13:34:07;7.46;62.99
68609;SHT31;55581;46.718;7.690;2022-11-27T13:36:46;7.46;64.44
68609;SHT31;55581;46.718;7.690;2022-11-27T13:39:26;7.54;65.31
68609;SHT31;55581;46.718;7.690;2022-11-27T13:44:33;7.49;62.61
68609;SHT31;55581;46.718;7.690;2022-11-27T13:47:06;7.43;63.62
68609;SHT31;55581;46.718;7.690;2022-11-27T13:49:34;7.40;63.54
68609;SHT31;55581;46.718;7.690;2022-11-27T13:52:20;7.39;64.22
68609;SHT31;55581;46.718;7.690;2022-11-27T13:55:01;7.36;65.10
68609;SHT31;55581;46.718;7.690;2022-11-27T13:57:28;7.27;62.69
68609;SHT31;55581;46.718;7.690;2022-11-27T14:00:08;7.30;63.21
68609;SHT31;55581;46.718;7.690;2022-11-27T14:02:50;7.34;64.70
68609;SHT31;55581;46.718;7.690;2022-11-27T14:05:20;7.27;63.08
68609;SHT31;55581;46.718;7.690;2022-11-27T14:07:53;7.19;62.76
68609;SHT31;55581;46.718;7.690;2022-11-27T14:10:24;7.19;63.83
68609;SHT31;55581;46.718;7.690;2022-11-27T14:13:03;7.13;62.93
68609;SHT31;55581;46.718;7.690;2022-11-27T14:15:32;7.12;62.88
68609;SHT31;55581;46.718;7.690;2022-11-27T14:18:25;7.11;62.29
68609;SHT31;55581;46.718;7.690;2022-11-27T14:20:55;7.08;62.83
68609;SHT31;55581;46.718;7.690;2022-11-27T14:23:48;7.09;63.55
68609;SHT31;55581;46.718;7.690;2022-11-27T14:28:44;7.15;63.56
68609;SHT31;55581;46.718;7.690;2022-11-27T14:31:39;7.13;63.24
68609;SHT31;55581;46.718;7.690;2022-11-27T14:34:05;7.12;62.58
68609;SHT31;55581;46.718;7.690;2022-11-27T14:36:32;7.09;63.22
68609;SHT31;55581;46.718;7.690;2022-11-27T14:39:03;7.05;64.12
68609;SHT31;55581;46.718;7.690;2022-11-27T14:41:29;7.04;65.40
68609;SHT31;55581;46.718;7.690;2022-11-27T14:44:12;6.95;68.48
68609;SHT31;55581;46.718;7.690;2022-11-27T14:46:38;6.94;68.63
68609;SHT31;55581;46.718;7.690;2022-11-27T14:49:04;6.84;68.76
68609;SHT31;55581;46.718;7.690;2022-11-27T14:51:33;6.83;68.62
68609;SHT31;55581;46.718;7.690;2022-11-27T14:54:06;6.73;68.35
68609;SHT31;55581;46.718;7.690;2022-11-27T14:56:36;6.64;67.91
68609;SHT31;55581;46.718;7.690;2022-11-27T14:59:03;6.66;70.29
68609;SHT31;55581;46.718;7.690;2022-11-27T15:01:35;6.58;70.59
68609;SHT31;55581;46.718;7.690;2022-11-27T15:04:03;6.60;71.60
68609;SHT31;55581;46.718;7.690;2022-11-27T15:06:42;6.58;73.10
68609;SHT31;55581;46.718;7.690;2022-11-27T15:09:22;6.53;73.61
68609;SHT31;55581;46.718;7.690;2022-11-27T15:11:55;6.49;75.32
68609;SHT31;55581;46.718;7.690;2022-11-27T15:14:24;6.51;75.36
68609;SHT31;55581;46.718;7.690;2022-11-27T15:16:51;6.47;74.31
68609;SHT31;55581;46.718;7.690;2022-11-27T15:19:31;6.41;72.68
68609;SHT31;55581;46.718;7.690;2022-11-27T15:21:58;6.37;73.03
68609;SHT31;55581;46.718;7.690;2022-11-27T15:27:29;6.33;73.32
68609;SHT31;55581;46.718;7.690;2022-11-27T15:32:20;6.29;73.57
68609;SHT31;55581;46.718;7.690;2022-11-27T15:34:48;6.22;73.02
68609;SHT31;55581;46.718;7.690;2022-11-27T15:39:52;6.18;73.14
68609;SHT31;55581;46.718;7.690;2022-11-27T15:42:19;6.16;72.07
68609;SHT31;55581;46.718;7.690;2022-11-27T15:44:45;6.15;70.83
68609;SHT31;55581;46.718;7.690;2022-11-27T15:47:32;6.12;72.92
68609;SHT31;55581;46.718;7.690;2022-11-27T15:49:59;6.06;72.84
68609;SHT31;55581;46.718;7.690;2022-11-27T15:52:27;6.03;73.01
68609;SHT31;55581;46.718;7.690;2022-11-27T15:54:53;6.02;73.77
68609;SHT31;55581;46.718;7.690;2022-11-27T15:57:19;6.01;73.52
68609;SHT31;55581;46.718;7.690;2022-11-27T15:59:45;5.98;73.38
68609;SHT31;55581;46.718;7.690;2022-11-27T16:02:11;6.02;73.31
68609;SHT31;55581;46.718;7.690;2022-11-27T16:04:39;6.13;74.89
68609;SHT31;55581;46.718;7.690;2022-11-27T16:07:05;6.08;74.18
68609;SHT31;55581;46.718;7.690;2022-11-27T16:09:34;6.09;73.35
68609;SHT31;55581;46.718;7.690;2022-11-27T16:12:03;6.09;73.30
68609;SHT31;55581;46.718;7.690;2022-11-27T16:14:31;6.06;72.27
68609;SHT31;55581;46.718;7.690;2022-11-27T16:16:56;6.06;72.95
68609;SHT31;55581;46.718;7.690;2022-11-27T16:19:21;6.08;74.84
68609;SHT31;55581;46.718;7.690;2022-11-27T16:21:47;6.13;74.02
68609;SHT31;55581;46.718;7.690;2022-11-27T16:24:13;6.15;75.32
68609;SHT31;55581;46.718;7.690;2022-11-27T16:26:39;6.15;72.53
68609;SHT31;55581;46.718;7.690;2022-11-27T16:29:06;6.22;73.07
68609;SHT31;55581;46.718;7.690;2022-11-27T16:31:31;6.23;71.80
68609;SHT31;55581;46.718;7.690;2022-11-27T16:33:57;6.16;74.20
68609;SHT31;55581;46.718;7.690;2022-11-27T16:36:24;6.13;74.35
68609;SHT31;55581;46.718;7.690;2022-11-27T16:38:51;6.09;74.89
68609;SHT31;55581;46.718;7.690;2022-11-27T16:41:22;6.11;74.99
68609;SHT31;55581;46.718;7.690;2022-11-27T16:43:52;6.03;74.31
68609;SHT31;55581;46.718;7.690;2022-11-27T16:46:20;6.03;74.36
68609;SHT31;55581;46.718;7.690;2022-11-27T16:48:46;5.98;74.03
68609;SHT31;55581;46.718;7.690;2022-11-27T16:51:18;5.98;73.87
68609;SHT31;55581;46.718;7.690;2022-11-27T16:53:48;5.94;74.11
68609;SHT31;55581;46.718;7.690;2022-11-27T16:56:16;6.02;73.56
68609;SHT31;55581;46.718;7.690;2022-11-27T16:58:44;5.99;73.31
68609;SHT31;55581;46.718;7.690;2022-11-27T17:01:12;5.99;73.67
68609;SHT31;55581;46.718;7.690;2022-11-27T17:03:38;5.99;72.90
68609;SHT31;55581;46.718;7.690;2022-11-27T17:06:12;6.01;73.82
68609;SHT31;55581;46.718;7.690;2022-11-27T17:08:40;6.05;72.57
68609;SHT31;55581;46.718;7.690;2022-11-27T17:11:08;6.02;72.53
68609;SHT31;55581;46.718;7.690;2022-11-27T17:13:36;6.03;70.66
68609;SHT31;55581;46.718;7.690;2022-11-27T17:16:05;6.05;71.31
68609;SHT31;55581;46.718;7.690;2022-11-27T17:18:35;6.09;71.76
68609;SHT31;55581;46.718;7.690;2022-11-27T17:21:03;6.09;71.60
68609;SHT31;55581;46.718;7.690;2022-11-27T17:23:29;6.29;70.92
68609;SHT31;55581;46.718;7.690;2022-11-27T17:25:57;6.33;70.34
68609;SHT31;55581;46.718;7.690;2022-11-27T17:28:22;6.44;70.58
68609;SHT31;55581;46.718;7.690;2022-11-27T17:30:48;6.56;70.96
68609;SHT31;55581;46.718;7.690;2022-11-27T17:33:13;6.50;71.63
68609;SHT31;55581;46.718;7.690;2022-11-27T17:35:41;6.56;71.54
68609;SHT31;55581;46.718;7.690;2022-11-27T17:38:06;6.66;70.56
68609;SHT31;55581;46.718;7.690;2022-11-27T17:40:31;6.70;70.87
68609;SHT31;55581;46.718;7.690;2022-11-27T17:42:58;6.71;70.84
68609;SHT31;55581;46.718;7.690;2022-11-27T17:45:23;6.74;71.30
68609;SHT31;55581;46.718;7.690;2022-11-27T17:47:48;6.70;70.70
68609;SHT31;55581;46.718;7.690;2022-11-27T17:50:14;6.68;70.11
68609;SHT31;55581;46.718;7.690;2022-11-27T17:52:39;6.57;71.82
68609;SHT31;55581;46.718;7.690;2022-11-27T17:55:05;6.44;72.84